NCAR-RAP Real-Time Weather Data

Output produced by METARs form (12 May 2021  11:19 UTC)
found at http://weather.rap.ucar.edu/surface/
 
KBWG 121053Z AUTO 05010KT 10SM OVC095 11/01 A3027 RMK AO2 SLP250 T01110011
KBWG 120953Z AUTO 05011G16KT 10SM OVC095 12/02 A3027 RMK AO2 SLP248 T01170017
KBWG 120853Z AUTO 06013KT 10SM OVC090 12/01 A3026 RMK AO2 SLP243 T01170011 53005
KBWG 120753Z AUTO 06012KT 10SM OVC090 12/02 A3026 RMK AO2 SLP244 T01220017
KBWG 120653Z AUTO 04011KT 10SM OVC090 13/03 A3023 RMK AO2 SLP234 T01280028
KBWG 120553Z AUTO 04011KT 10SM BKN085 OVC100 13/03 A3024 RMK AO2 SLP238 T01280028 10178 20128 402110067 51010
KBWG 120453Z AUTO 04010KT 10SM BKN090 OVC110 14/02 A3024 RMK AO2 SLP238 T01390022
KBWG 120353Z AUTO 03012G18KT 10SM OVC095 14/02 A3024 RMK AO2 SLP239 T01440022
KBWG 120253Z AUTO 04010G19KT 10SM BKN090 BKN110 15/04 A3021 RMK AO2 SLP228 T01500044 51012
KBWG 120153Z AUTO 03009KT 10SM OVC095 16/06 A3021 RMK AO2 SLP227 T01610061
KBWG 120053Z AUTO 03006KT 10SM FEW100 BKN120 17/06 A3019 RMK AO2 SLP222 T01720061
KBWG 112353Z AUTO 04009KT 10SM OVC100 18/06 A3018 RMK AO2 SLP217 T01780061 10211 20178 53002
KBWG 112253Z AUTO 04009KT 10SM BKN100 19/05 A3015 RMK AO2 SLP208 T01890050
KBWG 112153Z AUTO 03006KT 10SM BKN100 20/04 A3016 RMK AO2 SLP211 T02000044
KBWG 112053Z AUTO 06010KT 10SM BKN110 20/06 A3017 RMK AO2 SLP214 T02000061 56007